sensor_id;sensor_type;location;lat;lon;timestamp;P1;durP1;ratioP1;P2;durP2;ratioP2
32872;SDS011;19224;52.462;16.898;2022-09-09T00:04:25;14.00;;;10.48;;
32872;SDS011;19224;52.462;16.898;2022-09-09T00:16:25;13.78;;;9.90;;
32872;SDS011;19224;52.462;16.898;2022-09-09T00:21:49;14.07;;;9.93;;
32872;SDS011;19224;52.462;16.898;2022-09-09T00:24:32;11.83;;;9.63;;
32872;SDS011;19224;52.462;16.898;2022-09-09T00:27:16;11.73;;;9.55;;
32872;SDS011;19224;52.462;16.898;2022-09-09T00:30:14;16.57;;;9.75;;
32872;SDS011;19224;52.462;16.898;2022-09-09T00:32:54;11.60;;;9.38;;
32872;SDS011;19224;52.462;16.898;2022-09-09T00:35:47;12.40;;;9.48;;
32872;SDS011;19224;52.462;16.898;2022-09-09T00:38:24;14.13;;;10.60;;
32872;SDS011;19224;52.462;16.898;2022-09-09T00:41:06;12.50;;;9.95;;
32872;SDS011;19224;52.462;16.898;2022-09-09T00:53:20;15.83;;;12.60;;
32872;SDS011;19224;52.462;16.898;2022-09-09T00:56:13;16.23;;;10.00;;
32872;SDS011;19224;52.462;16.898;2022-09-09T00:58:55;13.03;;;9.10;;
32872;SDS011;19224;52.462;16.898;2022-09-09T01:01:42;12.23;;;9.23;;
32872;SDS011;19224;52.462;16.898;2022-09-09T01:04:13;11.12;;;9.40;;
32872;SDS011;19224;52.462;16.898;2022-09-09T01:06:50;13.08;;;9.30;;
32872;SDS011;19224;52.462;16.898;2022-09-09T01:09:32;11.10;;;8.98;;
32872;SDS011;19224;52.462;16.898;2022-09-09T01:12:17;10.80;;;8.30;;
32872;SDS011;19224;52.462;16.898;2022-09-09T01:15:21;9.90;;;8.28;;
32872;SDS011;19224;52.462;16.898;2022-09-09T01:17:58;9.78;;;8.03;;
32872;SDS011;19224;52.462;16.898;2022-09-09T01:26:55;9.13;;;7.65;;
32872;SDS011;19224;52.462;16.898;2022-09-09T01:29:24;10.32;;;7.40;;
32872;SDS011;19224;52.462;16.898;2022-09-09T01:31:59;9.50;;;8.23;;
32872;SDS011;19224;52.462;16.898;2022-09-09T01:34:33;11.15;;;8.15;;
32872;SDS011;19224;52.462;16.898;2022-09-09T01:37:07;12.40;;;7.75;;
32872;SDS011;19224;52.462;16.898;2022-09-09T01:39:41;9.78;;;7.72;;
32872;SDS011;19224;52.462;16.898;2022-09-09T01:42:14;9.43;;;7.35;;
32872;SDS011;19224;52.462;16.898;2022-09-09T01:44:48;9.03;;;7.65;;
32872;SDS011;19224;52.462;16.898;2022-09-09T01:47:22;8.78;;;7.28;;
32872;SDS011;19224;52.462;16.898;2022-09-09T01:49:53;9.05;;;6.80;;
32872;SDS011;19224;52.462;16.898;2022-09-09T01:52:23;9.23;;;7.28;;
32872;SDS011;19224;52.462;16.898;2022-09-09T01:54:54;8.00;;;6.97;;
32872;SDS011;19224;52.462;16.898;2022-09-09T01:57:41;10.40;;;7.00;;
32872;SDS011;19224;52.462;16.898;2022-09-09T02:00:29;12.30;;;6.97;;
32872;SDS011;19224;52.462;16.898;2022-09-09T02:03:03;9.45;;;7.15;;
32872;SDS011;19224;52.462;16.898;2022-09-09T02:05:42;10.08;;;7.00;;
32872;SDS011;19224;52.462;16.898;2022-09-09T02:11:20;9.88;;;7.30;;
32872;SDS011;19224;52.462;16.898;2022-09-09T02:16:48;8.58;;;6.90;;
32872;SDS011;19224;52.462;16.898;2022-09-09T02:19:27;9.43;;;7.05;;
32872;SDS011;19224;52.462;16.898;2022-09-09T02:22:07;8.15;;;6.75;;
32872;SDS011;19224;52.462;16.898;2022-09-09T02:24:42;9.75;;;7.20;;
32872;SDS011;19224;52.462;16.898;2022-09-09T02:27:14;11.68;;;7.15;;
32872;SDS011;19224;52.462;16.898;2022-09-09T02:29:53;11.18;;;7.15;;
32872;SDS011;19224;52.462;16.898;2022-09-09T02:32:26;13.72;;;6.67;;
32872;SDS011;19224;52.462;16.898;2022-09-09T02:35:01;10.70;;;6.92;;
32872;SDS011;19224;52.462;16.898;2022-09-09T02:37:38;8.83;;;6.70;;
32872;SDS011;19224;52.462;16.898;2022-09-09T02:40:11;13.45;;;6.87;;
32872;SDS011;19224;52.462;16.898;2022-09-09T02:42:44;8.98;;;6.75;;
32872;SDS011;19224;52.462;16.898;2022-09-09T02:45:18;9.00;;;6.95;;
32872;SDS011;19224;52.462;16.898;2022-09-09T02:50:53;9.05;;;8.10;;
32872;SDS011;19224;52.462;16.898;2022-09-09T02:53:27;11.63;;;8.05;;
32872;SDS011;19224;52.462;16.898;2022-09-09T02:56:04;12.13;;;7.90;;
32872;SDS011;19224;52.462;16.898;2022-09-09T02:58:40;10.32;;;7.22;;
32872;SDS011;19224;52.462;16.898;2022-09-09T03:01:11;9.50;;;7.62;;
32872;SDS011;19224;52.462;16.898;2022-09-09T03:03:47;8.53;;;7.62;;
32872;SDS011;19224;52.462;16.898;2022-09-09T03:06:18;10.18;;;7.03;;
32872;SDS011;19224;52.462;16.898;2022-09-09T03:08:49;10.20;;;8.40;;
32872;SDS011;19224;52.462;16.898;2022-09-09T03:11:20;9.43;;;8.10;;
32872;SDS011;19224;52.462;16.898;2022-09-09T03:13:51;10.40;;;8.80;;
32872;SDS011;19224;52.462;16.898;2022-09-09T03:16:23;10.48;;;9.43;;
32872;SDS011;19224;52.462;16.898;2022-09-09T03:18:54;11.38;;;9.43;;
32872;SDS011;19224;52.462;16.898;2022-09-09T03:21:24;12.00;;;9.25;;
32872;SDS011;19224;52.462;16.898;2022-09-09T03:23:56;14.35;;;9.95;;
32872;SDS011;19224;52.462;16.898;2022-09-09T03:26:32;13.38;;;9.48;;
32872;SDS011;19224;52.462;16.898;2022-09-09T03:29:04;10.53;;;9.40;;
32872;SDS011;19224;52.462;16.898;2022-09-09T03:31:35;11.12;;;9.75;;
32872;SDS011;19224;52.462;16.898;2022-09-09T03:34:12;11.65;;;9.18;;
32872;SDS011;19224;52.462;16.898;2022-09-09T03:36:42;10.55;;;9.45;;
32872;SDS011;19224;52.462;16.898;2022-09-09T03:39:14;11.45;;;9.78;;
32872;SDS011;19224;52.462;16.898;2022-09-09T03:41:46;12.40;;;10.20;;
32872;SDS011;19224;52.462;16.898;2022-09-09T03:44:16;13.95;;;10.45;;
32872;SDS011;19224;52.462;16.898;2022-09-09T03:46:47;15.68;;;10.55;;
32872;SDS011;19224;52.462;16.898;2022-09-09T03:49:17;13.60;;;11.20;;
32872;SDS011;19224;52.462;16.898;2022-09-09T03:51:49;13.30;;;11.30;;
32872;SDS011;19224;52.462;16.898;2022-09-09T03:54:20;14.33;;;10.58;;
32872;SDS011;19224;52.462;16.898;2022-09-09T03:56:52;13.68;;;10.72;;
32872;SDS011;19224;52.462;16.898;2022-09-09T03:59:23;13.53;;;10.72;;
32872;SDS011;19224;52.462;16.898;2022-09-09T04:01:53;15.70;;;11.10;;
32872;SDS011;19224;52.462;16.898;2022-09-09T04:04:26;15.03;;;10.35;;
32872;SDS011;19224;52.462;16.898;2022-09-09T04:07:00;13.68;;;11.00;;
32872;SDS011;19224;52.462;16.898;2022-09-09T04:09:35;12.45;;;10.53;;
32872;SDS011;19224;52.462;16.898;2022-09-09T04:12:11;13.10;;;11.30;;
32872;SDS011;19224;52.462;16.898;2022-09-09T04:14:45;12.40;;;11.10;;
32872;SDS011;19224;52.462;16.898;2022-09-09T04:17:15;14.07;;;11.12;;
32872;SDS011;19224;52.462;16.898;2022-09-09T04:19:47;15.40;;;12.03;;
32872;SDS011;19224;52.462;16.898;2022-09-09T04:22:18;15.95;;;13.43;;
32872;SDS011;19224;52.462;16.898;2022-09-09T04:24:50;14.00;;;12.23;;
32872;SDS011;19224;52.462;16.898;2022-09-09T04:27:20;14.90;;;11.40;;
32872;SDS011;19224;52.462;16.898;2022-09-09T04:29:51;16.23;;;11.28;;
32872;SDS011;19224;52.462;16.898;2022-09-09T04:32:23;17.77;;;12.50;;
32872;SDS011;19224;52.462;16.898;2022-09-09T04:34:54;14.18;;;11.38;;
32872;SDS011;19224;52.462;16.898;2022-09-09T04:37:25;13.93;;;10.93;;
32872;SDS011;19224;52.462;16.898;2022-09-09T04:39:56;15.15;;;10.70;;
32872;SDS011;19224;52.462;16.898;2022-09-09T04:42:28;15.78;;;10.53;;
32872;SDS011;19224;52.462;16.898;2022-09-09T04:44:59;13.18;;;10.88;;
32872;SDS011;19224;52.462;16.898;2022-09-09T04:47:30;13.68;;;11.57;;
32872;SDS011;19224;52.462;16.898;2022-09-09T04:50:02;14.15;;;11.83;;
32872;SDS011;19224;52.462;16.898;2022-09-09T04:52:34;13.95;;;11.33;;
32872;SDS011;19224;52.462;16.898;2022-09-09T04:55:05;15.40;;;12.80;;
32872;SDS011;19224;52.462;16.898;2022-09-09T04:57:37;14.98;;;12.58;;
32872;SDS011;19224;52.462;16.898;2022-09-09T05:00:09;16.42;;;12.85;;
32872;SDS011;19224;52.462;16.898;2022-09-09T05:02:41;19.40;;;13.35;;
32872;SDS011;19224;52.462;16.898;2022-09-09T05:05:13;17.62;;;13.83;;
32872;SDS011;19224;52.462;16.898;2022-09-09T05:07:43;16.82;;;14.25;;
32872;SDS011;19224;52.462;16.898;2022-09-09T05:10:16;19.37;;;14.73;;
32872;SDS011;19224;52.462;16.898;2022-09-09T05:12:52;17.82;;;13.98;;
32872;SDS011;19224;52.462;16.898;2022-09-09T05:15:25;16.70;;;14.15;;
32872;SDS011;19224;52.462;16.898;2022-09-09T05:17:59;19.82;;;15.93;;
32872;SDS011;19224;52.462;16.898;2022-09-09T05:20:31;20.97;;;15.60;;
32872;SDS011;19224;52.462;16.898;2022-09-09T05:23:01;19.60;;;14.98;;
32872;SDS011;19224;52.462;16.898;2022-09-09T05:25:32;19.77;;;14.95;;
32872;SDS011;19224;52.462;16.898;2022-09-09T05:28:04;18.02;;;14.70;;
32872;SDS011;19224;52.462;16.898;2022-09-09T05:30:35;19.65;;;15.45;;
32872;SDS011;19224;52.462;16.898;2022-09-09T05:33:05;21.45;;;15.32;;
32872;SDS011;19224;52.462;16.898;2022-09-09T05:35:43;24.45;;;15.60;;
32872;SDS011;19224;52.462;16.898;2022-09-09T05:38:09;22.25;;;15.63;;
32872;SDS011;19224;52.462;16.898;2022-09-09T05:40:46;23.00;;;15.78;;
32872;SDS011;19224;52.462;16.898;2022-09-09T05:43:19;22.05;;;17.42;;
32872;SDS011;19224;52.462;16.898;2022-09-09T05:46:03;22.13;;;16.70;;
32872;SDS011;19224;52.462;16.898;2022-09-09T05:48:38;19.17;;;16.10;;
32872;SDS011;19224;52.462;16.898;2022-09-09T05:51:24;35.00;;;24.72;;
32872;SDS011;19224;52.462;16.898;2022-09-09T05:53:58;23.60;;;17.05;;
32872;SDS011;19224;52.462;16.898;2022-09-09T05:56:29;20.88;;;15.83;;
32872;SDS011;19224;52.462;16.898;2022-09-09T05:59:01;20.57;;;16.23;;
32872;SDS011;19224;52.462;16.898;2022-09-09T06:01:34;22.30;;;16.05;;
32872;SDS011;19224;52.462;16.898;2022-09-09T06:04:08;20.77;;;15.60;;
32872;SDS011;19224;52.462;16.898;2022-09-09T06:06:38;21.77;;;15.53;;
32872;SDS011;19224;52.462;16.898;2022-09-09T06:09:09;23.45;;;15.65;;
32872;SDS011;19224;52.462;16.898;2022-09-09T06:11:42;20.05;;;14.10;;
32872;SDS011;19224;52.462;16.898;2022-09-09T06:14:13;25.00;;;15.05;;
32872;SDS011;19224;52.462;16.898;2022-09-09T06:16:45;21.57;;;15.90;;
32872;SDS011;19224;52.462;16.898;2022-09-09T06:19:17;20.70;;;15.60;;
32872;SDS011;19224;52.462;16.898;2022-09-09T06:21:48;18.17;;;14.05;;
32872;SDS011;19224;52.462;16.898;2022-09-09T06:24:20;20.12;;;14.10;;
32872;SDS011;19224;52.462;16.898;2022-09-09T06:26:50;17.45;;;13.53;;
32872;SDS011;19224;52.462;16.898;2022-09-09T06:29:25;20.40;;;13.83;;
32872;SDS011;19224;52.462;16.898;2022-09-09T06:31:56;19.92;;;14.35;;
32872;SDS011;19224;52.462;16.898;2022-09-09T06:34:28;17.67;;;13.93;;
32872;SDS011;19224;52.462;16.898;2022-09-09T06:36:59;19.90;;;13.80;;
32872;SDS011;19224;52.462;16.898;2022-09-09T06:39:32;25.32;;;14.10;;
32872;SDS011;19224;52.462;16.898;2022-09-09T06:42:03;23.75;;;13.80;;
32872;SDS011;19224;52.462;16.898;2022-09-09T06:44:36;19.80;;;14.10;;
32872;SDS011;19224;52.462;16.898;2022-09-09T06:47:06;20.80;;;13.22;;
32872;SDS011;19224;52.462;16.898;2022-09-09T06:49:39;21.80;;;14.43;;
32872;SDS011;19224;52.462;16.898;2022-09-09T06:52:13;22.30;;;15.32;;
32872;SDS011;19224;52.462;16.898;2022-09-09T06:54:44;20.45;;;14.83;;
32872;SDS011;19224;52.462;16.898;2022-09-09T06:57:14;20.60;;;14.47;;
32872;SDS011;19224;52.462;16.898;2022-09-09T06:59:45;17.02;;;14.73;;
32872;SDS011;19224;52.462;16.898;2022-09-09T07:02:16;18.00;;;14.43;;
32872;SDS011;19224;52.462;16.898;2022-09-09T07:04:46;17.98;;;14.03;;
32872;SDS011;19224;52.462;16.898;2022-09-09T07:07:19;19.52;;;15.40;;
32872;SDS011;19224;52.462;16.898;2022-09-09T07:09:52;19.73;;;14.83;;
32872;SDS011;19224;52.462;16.898;2022-09-09T07:12:22;23.55;;;15.30;;
32872;SDS011;19224;52.462;16.898;2022-09-09T07:14:54;22.27;;;17.05;;
32872;SDS011;19224;52.462;16.898;2022-09-09T07:17:24;22.80;;;16.05;;
32872;SDS011;19224;52.462;16.898;2022-09-09T07:19:56;18.65;;;14.87;;
32872;SDS011;19224;52.462;16.898;2022-09-09T07:22:27;18.90;;;14.93;;
32872;SDS011;19224;52.462;16.898;2022-09-09T07:24:58;18.35;;;15.58;;
32872;SDS011;19224;52.462;16.898;2022-09-09T07:27:29;20.12;;;15.23;;
32872;SDS011;19224;52.462;16.898;2022-09-09T07:30:00;19.55;;;14.95;;
32872;SDS011;19224;52.462;16.898;2022-09-09T07:32:31;17.37;;;14.45;;
32872;SDS011;19224;52.462;16.898;2022-09-09T07:35:01;18.85;;;13.68;;
32872;SDS011;19224;52.462;16.898;2022-09-09T07:37:32;17.70;;;13.20;;
32872;SDS011;19224;52.462;16.898;2022-09-09T07:40:06;14.25;;;12.45;;
32872;SDS011;19224;52.462;16.898;2022-09-09T07:42:41;15.38;;;11.30;;
32872;SDS011;19224;52.462;16.898;2022-09-09T07:45:20;12.25;;;9.60;;
32872;SDS011;19224;52.462;16.898;2022-09-09T07:47:50;11.35;;;9.45;;
32872;SDS011;19224;52.462;16.898;2022-09-09T07:50:27;11.83;;;9.30;;
32872;SDS011;19224;52.462;16.898;2022-09-09T07:53:03;13.40;;;8.85;;
32872;SDS011;19224;52.462;16.898;2022-09-09T07:55:35;11.70;;;8.63;;
32872;SDS011;19224;52.462;16.898;2022-09-09T07:58:06;14.93;;;9.33;;
32872;SDS011;19224;52.462;16.898;2022-09-09T08:00:39;10.53;;;8.83;;
32872;SDS011;19224;52.462;16.898;2022-09-09T08:03:11;13.83;;;9.03;;
32872;SDS011;19224;52.462;16.898;2022-09-09T08:05:41;16.95;;;9.73;;
32872;SDS011;19224;52.462;16.898;2022-09-09T08:08:17;11.05;;;8.00;;
32872;SDS011;19224;52.462;16.898;2022-09-09T08:10:47;11.22;;;7.97;;
32872;SDS011;19224;52.462;16.898;2022-09-09T08:13:20;11.28;;;8.30;;
32872;SDS011;19224;52.462;16.898;2022-09-09T08:15:53;9.30;;;7.60;;
32872;SDS011;19224;52.462;16.898;2022-09-09T08:18:23;10.40;;;7.40;;
32872;SDS011;19224;52.462;16.898;2022-09-09T08:20:55;10.58;;;8.18;;
32872;SDS011;19224;52.462;16.898;2022-09-09T08:23:27;8.48;;;5.53;;
32872;SDS011;19224;52.462;16.898;2022-09-09T08:26:03;10.40;;;6.25;;
32872;SDS011;19224;52.462;16.898;2022-09-09T08:28:39;11.50;;;6.45;;
32872;SDS011;19224;52.462;16.898;2022-09-09T08:31:13;9.25;;;6.00;;
32872;SDS011;19224;52.462;16.898;2022-09-09T08:33:47;10.23;;;5.95;;
32872;SDS011;19224;52.462;16.898;2022-09-09T08:36:18;10.48;;;6.67;;
32872;SDS011;19224;52.462;16.898;2022-09-09T08:38:52;9.23;;;7.42;;
32872;SDS011;19224;52.462;16.898;2022-09-09T08:50:17;8.73;;;6.45;;
32872;SDS011;19224;52.462;16.898;2022-09-09T08:55:48;12.75;;;7.00;;
32872;SDS011;19224;52.462;16.898;2022-09-09T08:58:25;11.33;;;7.92;;
32872;SDS011;19224;52.462;16.898;2022-09-09T09:04:22;9.65;;;7.42;;
32872;SDS011;19224;52.462;16.898;2022-09-09T09:07:15;11.73;;;7.65;;
32872;SDS011;19224;52.462;16.898;2022-09-09T09:10:21;11.25;;;7.53;;
32872;SDS011;19224;52.462;16.898;2022-09-09T09:12:58;12.78;;;8.33;;
32872;SDS011;19224;52.462;16.898;2022-09-09T09:16:02;14.35;;;8.30;;
32872;SDS011;19224;52.462;16.898;2022-09-09T09:18:33;9.43;;;7.47;;
32872;SDS011;19224;52.462;16.898;2022-09-09T09:21:08;10.78;;;7.20;;
32872;SDS011;19224;52.462;16.898;2022-09-09T09:23:51;9.03;;;6.67;;
32872;SDS011;19224;52.462;16.898;2022-09-09T09:26:34;9.35;;;6.70;;
32872;SDS011;19224;52.462;16.898;2022-09-09T09:29:13;8.95;;;5.30;;
32872;SDS011;19224;52.462;16.898;2022-09-09T09:31:48;8.73;;;5.97;;
32872;SDS011;19224;52.462;16.898;2022-09-09T09:34:23;6.92;;;4.60;;
32872;SDS011;19224;52.462;16.898;2022-09-09T09:36:56;6.30;;;3.67;;
32872;SDS011;19224;52.462;16.898;2022-09-09T09:39:37;6.97;;;4.00;;
32872;SDS011;19224;52.462;16.898;2022-09-09T09:42:12;3.50;;;3.15;;
32872;SDS011;19224;52.462;16.898;2022-09-09T09:44:45;5.20;;;3.77;;
32872;SDS011;19224;52.462;16.898;2022-09-09T09:47:17;9.73;;;3.62;;
32872;SDS011;19224;52.462;16.898;2022-09-09T09:49:51;7.75;;;3.35;;
32872;SDS011;19224;52.462;16.898;2022-09-09T09:52:27;4.67;;;3.80;;
32872;SDS011;19224;52.462;16.898;2022-09-09T09:55:03;6.15;;;3.42;;
32872;SDS011;19224;52.462;16.898;2022-09-09T09:57:37;10.10;;;3.25;;
32872;SDS011;19224;52.462;16.898;2022-09-09T10:02:48;6.67;;;3.08;;
32872;SDS011;19224;52.462;16.898;2022-09-09T10:05:21;35.45;;;3.98;;
32872;SDS011;19224;52.462;16.898;2022-09-09T10:08:11;7.78;;;2.20;;
32872;SDS011;19224;52.462;16.898;2022-09-09T10:19:32;3.45;;;2.30;;
32872;SDS011;19224;52.462;16.898;2022-09-09T10:33:50;5.30;;;2.90;;
32872;SDS011;19224;52.462;16.898;2022-09-09T10:36:37;4.90;;;2.42;;
32872;SDS011;19224;52.462;16.898;2022-09-09T10:39:18;3.37;;;1.80;;
32872;SDS011;19224;52.462;16.898;2022-09-09T10:41:55;1.72;;;1.62;;
32872;SDS011;19224;52.462;16.898;2022-09-09T10:53:24;5.08;;;2.27;;
32872;SDS011;19224;52.462;16.898;2022-09-09T10:56:12;4.67;;;2.62;;
32872;SDS011;19224;52.462;16.898;2022-09-09T10:58:52;13.35;;;3.00;;
32872;SDS011;19224;52.462;16.898;2022-09-09T11:01:36;7.50;;;2.70;;
32872;SDS011;19224;52.462;16.898;2022-09-09T11:06:54;32.55;;;4.90;;
32872;SDS011;19224;52.462;16.898;2022-09-09T11:09:28;9.55;;;3.52;;
32872;SDS011;19224;52.462;16.898;2022-09-09T11:12:02;6.00;;;3.20;;
32872;SDS011;19224;52.462;16.898;2022-09-09T11:17:21;5.42;;;3.30;;
32872;SDS011;19224;52.462;16.898;2022-09-09T11:20:01;7.08;;;3.40;;
32872;SDS011;19224;52.462;16.898;2022-09-09T11:22:35;5.90;;;3.67;;
32872;SDS011;19224;52.462;16.898;2022-09-09T11:25:23;12.25;;;2.90;;
32872;SDS011;19224;52.462;16.898;2022-09-09T11:34:08;4.28;;;1.92;;
32872;SDS011;19224;52.462;16.898;2022-09-09T11:36:56;6.10;;;2.22;;
32872;SDS011;19224;52.462;16.898;2022-09-09T11:42:46;3.65;;;1.67;;
32872;SDS011;19224;52.462;16.898;2022-09-09T11:45:40;3.98;;;1.07;;
32872;SDS011;19224;52.462;16.898;2022-09-09T11:48:22;4.92;;;1.40;;
32872;SDS011;19224;52.462;16.898;2022-09-09T11:50:57;4.53;;;1.30;;
32872;SDS011;19224;52.462;16.898;2022-09-09T11:53:50;4.62;;;1.60;;
32872;SDS011;19224;52.462;16.898;2022-09-09T11:56:27;7.25;;;1.60;;
32872;SDS011;19224;52.462;16.898;2022-09-09T12:02:02;3.77;;;1.22;;
32872;SDS011;19224;52.462;16.898;2022-09-09T12:07:32;7.00;;;1.42;;
32872;SDS011;19224;52.462;16.898;2022-09-09T12:10:23;4.60;;;1.25;;
32872;SDS011;19224;52.462;16.898;2022-09-09T12:13:08;4.55;;;1.27;;
32872;SDS011;19224;52.462;16.898;2022-09-09T12:15:56;1.60;;;1.00;;
32872;SDS011;19224;52.462;16.898;2022-09-09T12:18:34;4.37;;;1.20;;
32872;SDS011;19224;52.462;16.898;2022-09-09T12:24:01;3.08;;;1.12;;
32872;SDS011;19224;52.462;16.898;2022-09-09T12:26:39;3.60;;;1.35;;
32872;SDS011;19224;52.462;16.898;2022-09-09T12:32:31;4.85;;;1.10;;
32872;SDS011;19224;52.462;16.898;2022-09-09T12:35:09;3.72;;;1.22;;
32872;SDS011;19224;52.462;16.898;2022-09-09T12:38:00;3.33;;;1.30;;
32872;SDS011;19224;52.462;16.898;2022-09-09T12:40:35;2.83;;;0.90;;
32872;SDS011;19224;52.462;16.898;2022-09-09T12:43:21;4.40;;;0.88;;
32872;SDS011;19224;52.462;16.898;2022-09-09T12:45:59;2.47;;;1.15;;
32872;SDS011;19224;52.462;16.898;2022-09-09T12:48:38;5.25;;;1.10;;
32872;SDS011;19224;52.462;16.898;2022-09-09T12:51:35;5.90;;;1.20;;
32872;SDS011;19224;52.462;16.898;2022-09-09T12:54:12;3.55;;;1.25;;
32872;SDS011;19224;52.462;16.898;2022-09-09T12:56:35;5.53;;;1.30;;
32872;SDS011;19224;52.462;16.898;2022-09-09T12:59:17;2.87;;;1.02;;
32872;SDS011;19224;52.462;16.898;2022-09-09T13:01:57;0.75;;;0.60;;
32872;SDS011;19224;52.462;16.898;2022-09-09T13:04:30;4.53;;;1.07;;
32872;SDS011;19224;52.462;16.898;2022-09-09T13:07:10;3.95;;;1.55;;
32872;SDS011;19224;52.462;16.898;2022-09-09T13:09:44;8.05;;;2.25;;
32872;SDS011;19224;52.462;16.898;2022-09-09T13:12:21;1.85;;;1.15;;
32872;SDS011;19224;52.462;16.898;2022-09-09T13:15:01;5.80;;;1.22;;
32872;SDS011;19224;52.462;16.898;2022-09-09T13:17:31;6.60;;;1.35;;
32872;SDS011;19224;52.462;16.898;2022-09-09T13:20:02;3.55;;;1.17;;
32872;SDS011;19224;52.462;16.898;2022-09-09T13:22:34;2.55;;;1.10;;
32872;SDS011;19224;52.462;16.898;2022-09-09T13:30:34;3.05;;;1.20;;
32872;SDS011;19224;52.462;16.898;2022-09-09T13:35:53;2.50;;;0.95;;
32872;SDS011;19224;52.462;16.898;2022-09-09T13:38:28;2.70;;;0.80;;
32872;SDS011;19224;52.462;16.898;2022-09-09T13:41:08;15.05;;;9.63;;
32872;SDS011;19224;52.462;16.898;2022-09-09T13:43:44;3.55;;;0.90;;
32872;SDS011;19224;52.462;16.898;2022-09-09T13:52:02;4.58;;;1.00;;
32872;SDS011;19224;52.462;16.898;2022-09-09T13:54:40;3.55;;;1.20;;
32872;SDS011;19224;52.462;16.898;2022-09-09T13:57:15;2.67;;;0.93;;
32872;SDS011;19224;52.462;16.898;2022-09-09T13:59:54;3.50;;;1.02;;
32872;SDS011;19224;52.462;16.898;2022-09-09T14:02:26;2.52;;;1.00;;
32872;SDS011;19224;52.462;16.898;2022-09-09T14:04:58;1.57;;;0.90;;
32872;SDS011;19224;52.462;16.898;2022-09-09T14:07:29;3.42;;;0.82;;
32872;SDS011;19224;52.462;16.898;2022-09-09T14:09:59;4.15;;;1.27;;
32872;SDS011;19224;52.462;16.898;2022-09-09T14:12:30;5.15;;;1.12;;
32872;SDS011;19224;52.462;16.898;2022-09-09T14:15:03;2.12;;;0.90;;
32872;SDS011;19224;52.462;16.898;2022-09-09T14:17:35;3.72;;;0.90;;
32872;SDS011;19224;52.462;16.898;2022-09-09T14:20:07;6.78;;;1.07;;
32872;SDS011;19224;52.462;16.898;2022-09-09T14:22:39;2.37;;;0.82;;
32872;SDS011;19224;52.462;16.898;2022-09-09T14:25:12;6.25;;;1.20;;
32872;SDS011;19224;52.462;16.898;2022-09-09T14:27:44;4.60;;;1.10;;
32872;SDS011;19224;52.462;16.898;2022-09-09T14:30:16;3.75;;;0.90;;
32872;SDS011;19224;52.462;16.898;2022-09-09T14:32:51;1.62;;;0.85;;
32872;SDS011;19224;52.462;16.898;2022-09-09T14:35:22;3.02;;;1.00;;
32872;SDS011;19224;52.462;16.898;2022-09-09T14:37:55;3.92;;;0.90;;
32872;SDS011;19224;52.462;16.898;2022-09-09T14:40:26;2.58;;;0.90;;
32872;SDS011;19224;52.462;16.898;2022-09-09T14:42:57;3.20;;;0.80;;
32872;SDS011;19224;52.462;16.898;2022-09-09T14:45:27;3.72;;;1.77;;
32872;SDS011;19224;52.462;16.898;2022-09-09T14:48:03;5.25;;;3.17;;
32872;SDS011;19224;52.462;16.898;2022-09-09T14:50:33;3.67;;;1.25;;
32872;SDS011;19224;52.462;16.898;2022-09-09T14:53:08;4.60;;;1.25;;
32872;SDS011;19224;52.462;16.898;2022-09-09T14:55:42;3.33;;;1.00;;
32872;SDS011;19224;52.462;16.898;2022-09-09T14:58:20;3.37;;;1.20;;
32872;SDS011;19224;52.462;16.898;2022-09-09T15:00:51;5.33;;;1.05;;
32872;SDS011;19224;52.462;16.898;2022-09-09T15:03:22;3.02;;;0.80;;
32872;SDS011;19224;52.462;16.898;2022-09-09T15:05:53;4.42;;;1.12;;
32872;SDS011;19224;52.462;16.898;2022-09-09T15:08:27;2.98;;;1.00;;
32872;SDS011;19224;52.462;16.898;2022-09-09T15:11:03;2.27;;;0.93;;
32872;SDS011;19224;52.462;16.898;2022-09-09T15:13:36;3.90;;;1.10;;
32872;SDS011;19224;52.462;16.898;2022-09-09T15:16:11;1.70;;;0.95;;
32872;SDS011;19224;52.462;16.898;2022-09-09T15:18:50;5.45;;;1.07;;
32872;SDS011;19224;52.462;16.898;2022-09-09T15:21:31;5.47;;;1.05;;
32872;SDS011;19224;52.462;16.898;2022-09-09T15:23:58;10.05;;;1.35;;
32872;SDS011;19224;52.462;16.898;2022-09-09T15:26:31;6.33;;;1.75;;
32872;SDS011;19224;52.462;16.898;2022-09-09T15:29:04;3.70;;;0.90;;
32872;SDS011;19224;52.462;16.898;2022-09-09T15:31:36;3.77;;;1.00;;
32872;SDS011;19224;52.462;16.898;2022-09-09T15:34:08;4.35;;;1.30;;
32872;SDS011;19224;52.462;16.898;2022-09-09T15:36:43;3.65;;;1.00;;
32872;SDS011;19224;52.462;16.898;2022-09-09T15:39:14;3.60;;;1.10;;
32872;SDS011;19224;52.462;16.898;2022-09-09T15:41:48;4.08;;;1.00;;
32872;SDS011;19224;52.462;16.898;2022-09-09T15:44:21;4.12;;;1.02;;
32872;SDS011;19224;52.462;16.898;2022-09-09T15:46:53;4.03;;;1.15;;
32872;SDS011;19224;52.462;16.898;2022-09-09T15:49:29;3.72;;;1.60;;
32872;SDS011;19224;52.462;16.898;2022-09-09T15:51:59;8.43;;;1.50;;
32872;SDS011;19224;52.462;16.898;2022-09-09T15:54:32;3.98;;;1.07;;
32872;SDS011;19224;52.462;16.898;2022-09-09T15:57:07;3.10;;;1.30;;
32872;SDS011;19224;52.462;16.898;2022-09-09T15:59:41;4.97;;;1.35;;
32872;SDS011;19224;52.462;16.898;2022-09-09T16:02:14;4.87;;;1.50;;
32872;SDS011;19224;52.462;16.898;2022-09-09T16:04:46;4.55;;;1.27;;
32872;SDS011;19224;52.462;16.898;2022-09-09T16:07:20;4.10;;;1.22;;
32872;SDS011;19224;52.462;16.898;2022-09-09T16:09:51;11.00;;;1.25;;
32872;SDS011;19224;52.462;16.898;2022-09-09T16:12:22;3.75;;;1.42;;
32872;SDS011;19224;52.462;16.898;2022-09-09T16:14:53;6.12;;;1.40;;
32872;SDS011;19224;52.462;16.898;2022-09-09T16:17:24;3.85;;;1.00;;
32872;SDS011;19224;52.462;16.898;2022-09-09T16:19:55;3.52;;;1.20;;
32872;SDS011;19224;52.462;16.898;2022-09-09T16:22:27;5.95;;;1.47;;
32872;SDS011;19224;52.462;16.898;2022-09-09T16:24:59;5.37;;;1.50;;
32872;SDS011;19224;52.462;16.898;2022-09-09T16:27:29;6.33;;;2.20;;
32872;SDS011;19224;52.462;16.898;2022-09-09T16:30:01;4.15;;;1.40;;
32872;SDS011;19224;52.462;16.898;2022-09-09T16:32:33;2.00;;;1.20;;
32872;SDS011;19224;52.462;16.898;2022-09-09T16:35:04;7.10;;;1.70;;
32872;SDS011;19224;52.462;16.898;2022-09-09T16:37:38;4.12;;;1.22;;
32872;SDS011;19224;52.462;16.898;2022-09-09T16:40:09;9.03;;;1.57;;
32872;SDS011;19224;52.462;16.898;2022-09-09T16:42:40;3.70;;;1.40;;
32872;SDS011;19224;52.462;16.898;2022-09-09T16:45:11;9.45;;;1.47;;
32872;SDS011;19224;52.462;16.898;2022-09-09T16:47:41;3.42;;;1.35;;
32872;SDS011;19224;52.462;16.898;2022-09-09T16:50:12;4.12;;;1.30;;
32872;SDS011;19224;52.462;16.898;2022-09-09T16:52:43;7.75;;;1.35;;
32872;SDS011;19224;52.462;16.898;2022-09-09T16:55:14;6.70;;;1.30;;
32872;SDS011;19224;52.462;16.898;2022-09-09T16:57:48;4.60;;;1.62;;
32872;SDS011;19224;52.462;16.898;2022-09-09T17:00:20;6.15;;;1.60;;
32872;SDS011;19224;52.462;16.898;2022-09-09T17:02:52;2.87;;;1.40;;
32872;SDS011;19224;52.462;16.898;2022-09-09T17:05:25;3.33;;;1.75;;
32872;SDS011;19224;52.462;16.898;2022-09-09T17:07:57;3.15;;;1.30;;
32872;SDS011;19224;52.462;16.898;2022-09-09T17:10:29;7.58;;;1.47;;
32872;SDS011;19224;52.462;16.898;2022-09-09T17:13:01;5.25;;;1.20;;
32872;SDS011;19224;52.462;16.898;2022-09-09T17:15:31;7.65;;;1.57;;